createdAt,value
2019-03-04T00:01:41.819Z,9.00
2019-03-04T00:04:11.812Z,9.00
2019-03-04T00:06:41.869Z,9.00
2019-03-04T00:09:17.520Z,9.00
2019-03-04T00:11:47.181Z,9.10
2019-03-04T00:14:18.817Z,9.10
2019-03-04T00:16:55.423Z,9.10
2019-03-04T00:19:26.454Z,9.10
2019-03-04T00:21:55.037Z,9.10
2019-03-04T00:24:23.667Z,9.10
2019-03-04T00:26:52.229Z,9.10
2019-03-04T00:29:21.248Z,9.10
2019-03-04T00:31:51.198Z,9.10
2019-03-04T00:34:20.142Z,9.10
2019-03-04T00:36:48.743Z,9.10
2019-03-04T00:39:17.345Z,9.10
2019-03-04T00:41:45.908Z,9.10
2019-03-04T00:44:14.556Z,9.10
2019-03-04T00:46:43.139Z,9.10
2019-03-04T00:49:11.729Z,9.10
2019-03-04T00:51:40.631Z,9.10
2019-03-04T00:54:09.244Z,9.10
2019-03-04T00:56:37.927Z,9.10
2019-03-04T00:59:07.875Z,9.10
2019-03-04T01:01:36.553Z,9.10
2019-03-04T01:04:05.263Z,9.10
2019-03-04T01:06:33.843Z,9.10
2019-03-04T01:09:02.444Z,9.10
2019-03-04T01:11:31.053Z,9.20
2019-03-04T01:13:59.699Z,9.20
2019-03-04T01:16:28.375Z,9.10
2019-03-04T01:18:57.039Z,9.20
2019-03-04T01:21:25.635Z,9.20
2019-03-04T01:23:54.236Z,9.20
2019-03-04T01:26:22.816Z,9.10
2019-03-04T01:28:51.505Z,9.10
2019-03-04T01:31:20.080Z,9.20
2019-03-04T01:33:48.674Z,9.20
2019-03-04T01:36:17.315Z,9.20
2019-03-04T01:38:45.883Z,9.20
2019-03-04T01:41:14.509Z,9.10
2019-03-04T01:43:43.097Z,9.20
2019-03-04T01:46:12.109Z,9.20
2019-03-04T01:48:40.734Z,9.20
2019-03-04T01:51:09.462Z,9.20
2019-03-04T01:53:38.034Z,9.20
2019-03-04T01:56:06.620Z,9.20
2019-03-04T01:58:35.206Z,9.20
2019-03-04T02:01:04.035Z,9.20
2019-03-04T02:03:34.601Z,9.20
2019-03-04T02:06:04.524Z,9.30
2019-03-04T02:08:34.123Z,9.20
2019-03-04T02:11:02.695Z,9.30
2019-03-04T02:13:32.346Z,9.20
2019-03-04T02:16:01.179Z,9.20
2019-03-04T02:18:30.783Z,9.20
2019-03-04T02:20:59.387Z,9.20
2019-03-04T02:23:28.427Z,9.20
2019-03-04T02:26:06.119Z,9.10
2019-03-04T02:28:34.689Z,9.10
2019-03-04T02:31:05.846Z,9.10
2019-03-04T02:33:37.565Z,9.10
2019-03-04T02:36:06.146Z,9.10
2019-03-04T02:38:35.813Z,9.10
2019-03-04T02:41:04.503Z,9.10
2019-03-04T02:43:34.058Z,9.10
2019-03-04T02:46:02.997Z,9.10
2019-03-04T02:48:31.559Z,9.10
2019-03-04T02:51:00.244Z,9.10
2019-03-04T02:53:28.827Z,9.00
2019-03-04T02:55:58.739Z,9.10
2019-03-04T02:58:27.433Z,9.10
2019-03-04T03:00:56.111Z,9.00
2019-03-04T03:03:24.704Z,9.10
2019-03-04T03:05:53.250Z,9.10
2019-03-04T03:08:22.254Z,9.10
2019-03-04T03:10:50.885Z,9.10
2019-03-04T03:13:19.491Z,9.10
2019-03-04T03:15:55.910Z,9.10
2019-03-04T03:18:24.545Z,9.10
2019-03-04T03:20:53.273Z,9.10
2019-03-04T03:23:21.892Z,9.10
2019-03-04T03:25:50.486Z,9.10
2019-03-04T03:28:19.140Z,9.10
2019-03-04T03:30:47.810Z,9.10
2019-03-04T03:33:16.367Z,9.10
2019-03-04T03:35:44.956Z,9.10
2019-03-04T03:38:13.521Z,9.10
2019-03-04T03:40:42.238Z,9.10
2019-03-04T03:43:10.801Z,9.10
2019-03-04T03:45:39.392Z,9.10
2019-03-04T03:48:08.080Z,9.10
2019-03-04T03:50:36.706Z,9.10
2019-03-04T03:53:06.187Z,9.10
2019-03-04T03:55:34.800Z,9.10
2019-03-04T03:58:03.386Z,9.10
2019-03-04T04:00:32.001Z,9.10
2019-03-04T04:03:00.845Z,9.10
2019-03-04T04:05:29.465Z,9.10
2019-03-04T04:07:58.108Z,9.10
2019-03-04T04:10:26.743Z,9.20
2019-03-04T04:12:55.335Z,9.20
2019-03-04T04:15:23.920Z,9.20
2019-03-04T04:17:52.802Z,9.20
2019-03-04T04:20:22.366Z,9.20
2019-03-04T04:22:50.964Z,9.20
2019-03-04T04:25:19.640Z,9.20
2019-03-04T04:27:49.364Z,9.20
2019-03-04T04:30:29.158Z,9.20
2019-03-04T04:32:57.833Z,9.20
2019-03-04T04:35:26.524Z,9.20
2019-03-04T04:37:55.072Z,9.20
2019-03-04T04:40:23.658Z,9.20
2019-03-04T04:42:52.252Z,9.20
2019-03-04T04:45:20.958Z,9.20
2019-03-04T04:47:49.519Z,9.20
2019-03-04T04:50:23.646Z,9.20
2019-03-04T04:52:52.255Z,9.20
2019-03-04T04:55:20.924Z,9.30
2019-03-04T04:57:49.656Z,9.20
2019-03-04T05:00:20.654Z,9.20
2019-03-04T05:02:49.360Z,9.30
2019-03-04T05:05:18.181Z,9.20
2019-03-04T05:07:46.884Z,9.30
2019-03-04T05:10:19.795Z,9.30
2019-03-04T05:12:48.563Z,9.30
2019-03-04T05:15:17.917Z,9.30
2019-03-04T05:17:46.926Z,9.30
2019-03-04T05:20:26.151Z,9.30
2019-03-04T05:22:54.822Z,9.30
2019-03-04T05:25:23.429Z,9.30
2019-03-04T05:27:54.514Z,9.30
2019-03-04T05:30:23.646Z,9.30
2019-03-04T05:32:54.331Z,9.30
2019-03-04T05:35:22.908Z,9.30
2019-03-04T05:37:51.482Z,9.30
2019-03-04T05:40:21.677Z,9.30
2019-03-04T05:42:50.335Z,9.30
2019-03-04T05:45:19.464Z,9.30
2019-03-04T05:47:48.187Z,9.30
2019-03-04T05:50:21.508Z,9.30
2019-03-04T05:52:50.070Z,9.30
2019-03-04T05:55:18.965Z,9.30
2019-03-04T05:57:47.582Z,9.30
2019-03-04T06:00:21.515Z,9.40
2019-03-04T06:02:51.719Z,9.30
2019-03-04T06:05:20.307Z,9.40
2019-03-04T06:07:52.094Z,9.50
2019-03-04T06:10:20.890Z,9.50
2019-03-04T06:12:51.133Z,9.50
2019-03-04T06:15:23.803Z,9.50
2019-03-04T06:17:54.381Z,9.50
2019-03-04T06:20:25.033Z,9.60
2019-03-04T06:22:53.608Z,9.60
2019-03-04T06:25:26.899Z,9.60
2019-03-04T06:27:56.661Z,9.60
2019-03-04T06:30:31.709Z,9.70
2019-03-04T06:33:00.298Z,9.70
2019-03-04T06:35:30.806Z,9.70
2019-03-04T06:37:59.403Z,9.70
2019-03-04T06:40:29.091Z,9.70
2019-03-04T06:42:58.016Z,9.70
2019-03-04T06:45:27.023Z,9.70
2019-03-04T06:47:56.016Z,9.80
2019-03-04T06:50:56.314Z,9.80
2019-03-04T06:53:39.271Z,9.80
2019-03-04T06:56:22.018Z,9.80
2019-03-04T06:59:07.698Z,9.90
2019-03-04T07:01:45.391Z,9.90
2019-03-04T07:04:25.977Z,10.00
2019-03-04T07:07:06.749Z,10.00
2019-03-04T07:09:35.371Z,10.00
2019-03-04T07:12:05.085Z,10.00
2019-03-04T07:14:35.721Z,10.10
2019-03-04T07:17:04.380Z,10.10
2019-03-04T07:19:33.912Z,10.20
2019-03-04T07:22:03.573Z,10.20
2019-03-04T07:24:32.209Z,10.30
2019-03-04T07:27:06.796Z,10.30
2019-03-04T07:29:35.632Z,10.30
2019-03-04T07:32:12.020Z,10.30
2019-03-04T07:34:42.223Z,10.40
2019-03-04T07:37:12.813Z,10.40
2019-03-04T07:39:41.424Z,10.50
2019-03-04T07:42:12.952Z,10.60
2019-03-04T07:44:42.866Z,10.60
2019-03-04T07:47:12.157Z,10.80
2019-03-04T07:49:43.266Z,11.00
2019-03-04T07:52:12.062Z,11.30
2019-03-04T07:54:40.682Z,11.60
2019-03-04T07:57:09.319Z,12.00
2019-03-04T07:59:38.211Z,12.90
2019-03-04T08:02:07.778Z,13.50
2019-03-04T08:04:36.949Z,13.90
2019-03-04T08:07:41.491Z,13.90
2019-03-04T08:10:46.930Z,14.00
2019-03-04T08:13:18.651Z,15.00
2019-03-04T08:15:48.268Z,17.80
2019-03-04T08:18:16.865Z,19.80
2019-03-04T08:20:45.553Z,21.60
2019-03-04T08:23:14.640Z,23.10
2019-03-04T08:25:46.115Z,24.20
2019-03-04T08:28:14.809Z,25.30
2019-03-04T08:30:43.591Z,26.20
2019-03-04T08:33:12.281Z,26.80
2019-03-04T08:35:41.208Z,27.50
2019-03-04T08:38:09.836Z,28.00
2019-03-04T08:40:38.433Z,28.80
2019-03-04T08:43:07.786Z,29.20
2019-03-04T08:45:37.044Z,29.30
2019-03-04T08:48:05.865Z,29.40
2019-03-04T08:50:34.786Z,29.50
2019-03-04T08:53:03.365Z,29.20
2019-03-04T08:55:31.977Z,29.20
2019-03-04T08:58:00.540Z,28.80
2019-03-04T09:00:32.601Z,28.80
2019-03-04T09:03:01.666Z,29.00
2019-03-04T09:05:30.427Z,29.20
2019-03-04T09:07:59.146Z,29.20
2019-03-04T09:10:29.972Z,29.60
2019-03-04T09:12:58.710Z,29.80
2019-03-04T09:15:27.851Z,29.30
2019-03-04T09:17:56.694Z,29.40
2019-03-04T09:20:25.339Z,29.20
2019-03-04T09:22:57.236Z,29.10
2019-03-04T09:25:30.441Z,28.70
2019-03-04T09:27:56.823Z,28.30
2019-03-04T09:30:25.538Z,27.90
2019-03-04T09:32:54.263Z,28.30
2019-03-04T09:35:22.875Z,28.50
2019-03-04T09:37:51.527Z,28.90
2019-03-04T09:40:31.404Z,29.00
2019-03-04T09:43:01.229Z,29.10
2019-03-04T09:45:38.412Z,29.20
2019-03-04T09:48:00.267Z,29.30
2019-03-04T09:50:30.396Z,29.60
2019-03-04T09:52:59.095Z,30.00
2019-03-04T09:55:30.054Z,30.30
2019-03-04T09:57:58.630Z,30.10
2019-03-04T10:00:50.548Z,29.70
2019-03-04T10:03:30.722Z,29.10
2019-03-04T10:06:23.279Z,29.00
2019-03-04T10:09:14.496Z,28.30
2019-03-04T10:12:01.134Z,28.30
2019-03-04T10:14:44.669Z,28.40
2019-03-04T10:17:28.745Z,28.10
2019-03-04T10:20:13.483Z,27.50
2019-03-04T10:22:50.953Z,25.60
2019-03-04T10:25:26.481Z,23.80
2019-03-04T10:28:04.105Z,22.30
2019-03-04T10:30:47.877Z,21.10
2019-03-04T10:33:35.671Z,20.20
2019-03-04T10:36:13.136Z,19.50
2019-03-04T10:39:00.041Z,19.00
2019-03-04T10:41:46.229Z,18.60
2019-03-04T10:44:51.041Z,18.20
2019-03-04T10:47:19.811Z,18.00
2019-03-04T10:49:48.404Z,17.90
2019-03-04T10:52:17.066Z,18.00
2019-03-04T10:54:45.691Z,18.00
2019-03-04T10:57:15.441Z,18.20
2019-03-04T10:59:44.027Z,18.40
2019-03-04T11:02:13.550Z,18.60
2019-03-04T11:04:43.116Z,18.70
2019-03-04T11:07:11.843Z,18.70
2019-03-04T11:09:40.496Z,18.60
2019-03-04T11:12:09.577Z,18.60
2019-03-04T11:14:38.145Z,18.50
2019-03-04T11:17:06.834Z,18.40
2019-03-04T11:19:36.935Z,18.20
2019-03-04T11:22:05.667Z,17.90
2019-03-04T11:24:34.314Z,17.70
2019-03-04T11:27:02.903Z,17.40
2019-03-04T11:29:31.556Z,17.20
2019-03-04T11:32:03.243Z,17.20
2019-03-04T11:34:31.959Z,17.10
2019-03-04T11:37:00.597Z,17.00
2019-03-04T11:39:34.895Z,17.10
2019-03-04T11:42:04.550Z,17.00
2019-03-04T11:44:33.187Z,17.10
2019-03-04T11:47:01.768Z,17.20
2019-03-04T11:49:30.338Z,17.20
2019-03-04T11:51:59.268Z,17.20
2019-03-04T11:54:27.887Z,17.10
2019-03-04T11:56:56.480Z,17.00
2019-03-04T11:59:25.111Z,17.00
2019-03-04T12:01:53.706Z,16.90
2019-03-04T12:04:22.944Z,16.90
2019-03-04T12:06:52.268Z,16.90
2019-03-04T12:09:20.848Z,17.00
2019-03-04T12:11:49.729Z,16.90
2019-03-04T12:14:19.362Z,16.80
2019-03-04T12:16:48.126Z,16.80
2019-03-04T12:19:17.798Z,16.70
2019-03-04T12:21:46.492Z,16.70
2019-03-04T12:24:15.081Z,16.60
2019-03-04T12:26:43.734Z,16.70
2019-03-04T12:29:12.401Z,16.70
2019-03-04T12:31:42.625Z,16.90
2019-03-04T12:34:12.854Z,16.90
2019-03-04T12:36:42.517Z,17.10
2019-03-04T12:39:12.254Z,17.10
2019-03-04T12:41:43.900Z,17.20
2019-03-04T12:52:35.156Z,17.20
2019-03-04T12:55:05.325Z,17.20
2019-03-04T12:57:35.032Z,17.10
2019-03-04T13:00:10.531Z,17.10
2019-03-04T13:02:39.252Z,17.10
2019-03-04T13:05:11.087Z,17.10
2019-03-04T13:07:39.869Z,17.00
2019-03-04T13:10:18.883Z,17.10
2019-03-04T13:12:47.560Z,17.10
2019-03-04T13:15:21.679Z,17.10
2019-03-04T13:17:50.390Z,17.00
2019-03-04T13:20:24.448Z,16.90
2019-03-04T13:22:54.008Z,16.90
2019-03-04T13:25:23.664Z,16.80
2019-03-04T13:27:53.243Z,16.70
2019-03-04T13:30:26.477Z,16.70
2019-03-04T13:32:55.211Z,16.70
2019-03-04T13:35:33.021Z,16.70
2019-03-04T13:38:02.505Z,16.60
2019-03-04T13:40:31.891Z,16.50
2019-03-04T13:43:01.512Z,16.50
2019-03-04T13:45:31.271Z,16.50
2019-03-04T13:48:00.833Z,16.50
2019-03-04T13:50:34.595Z,16.50
2019-03-04T13:53:03.229Z,16.50
2019-03-04T13:55:31.963Z,16.50
2019-03-04T13:58:00.643Z,16.50
2019-03-04T14:00:41.396Z,16.50
2019-03-04T14:03:13.146Z,16.60
2019-03-04T14:05:41.814Z,16.50
2019-03-04T14:08:10.563Z,16.50
2019-03-04T14:10:41.880Z,16.40
2019-03-04T14:13:10.858Z,16.40
2019-03-04T14:15:42.189Z,16.40
2019-03-04T14:18:11.859Z,16.40
2019-03-04T14:20:40.529Z,16.50
2019-03-04T14:23:09.184Z,16.50
2019-03-04T14:25:38.068Z,16.40
2019-03-04T14:28:06.806Z,16.30
2019-03-04T14:30:35.430Z,16.30
2019-03-04T14:33:04.093Z,16.30
2019-03-04T14:35:34.755Z,16.20
2019-03-04T14:38:03.838Z,16.20
2019-03-04T14:40:35.511Z,16.20
2019-03-04T14:43:04.400Z,16.20
2019-03-04T14:45:32.994Z,16.20
2019-03-04T14:48:02.678Z,16.20
2019-03-04T14:50:31.314Z,16.20
2019-03-04T14:52:59.928Z,16.30
2019-03-04T14:55:33.752Z,16.20
2019-03-04T14:58:02.322Z,16.20
2019-03-04T15:00:43.244Z,16.10
2019-03-04T15:03:22.114Z,16.00
2019-03-04T15:05:43.327Z,15.90
2019-03-04T15:08:11.909Z,15.90
2019-03-04T15:10:40.490Z,15.80
2019-03-04T15:13:10.120Z,15.80
2019-03-04T15:15:38.917Z,15.70
2019-03-04T15:18:07.665Z,15.70
2019-03-04T15:20:37.350Z,15.60
2019-03-04T15:23:07.161Z,15.60
2019-03-04T15:25:38.576Z,15.50
2019-03-04T15:28:15.601Z,15.40
2019-03-04T15:30:46.901Z,15.40
2019-03-04T15:33:18.417Z,15.30
2019-03-04T15:35:47.070Z,15.30
2019-03-04T15:38:16.836Z,15.30
2019-03-04T15:40:45.439Z,15.30
2019-03-04T15:43:15.668Z,15.30
2019-03-04T15:45:45.913Z,15.30
2019-03-04T15:48:15.357Z,15.30
2019-03-04T15:50:44.138Z,15.20
2019-03-04T15:53:13.057Z,15.30
2019-03-04T15:55:43.060Z,15.30
2019-03-04T15:58:11.796Z,15.30
2019-03-04T16:00:43.828Z,15.30
2019-03-04T16:03:13.522Z,15.30
2019-03-04T16:05:42.167Z,15.20
2019-03-04T16:08:12.479Z,15.20
2019-03-04T16:10:41.214Z,15.10
2019-03-04T16:13:09.942Z,15.10
2019-03-04T16:15:44.448Z,15.10
2019-03-04T16:18:13.131Z,15.00
2019-03-04T16:20:41.763Z,15.00
2019-03-04T16:23:13.348Z,14.90
2019-03-04T16:25:42.096Z,14.80
2019-03-04T16:28:16.569Z,14.80
2019-03-04T16:30:48.260Z,14.70
2019-03-04T16:33:17.275Z,14.60
2019-03-04T16:35:47.549Z,14.50
2019-03-04T16:38:16.412Z,14.50
2019-03-04T16:40:45.973Z,14.40
2019-03-04T16:43:15.761Z,14.40
2019-03-04T16:45:49.075Z,14.30
2019-03-04T16:48:20.121Z,14.30
2019-03-04T16:50:48.808Z,14.20
2019-03-04T16:53:29.219Z,14.10
2019-03-04T16:55:57.952Z,14.10
2019-03-04T16:58:26.610Z,14.00
2019-03-04T17:00:55.415Z,13.90
2019-03-04T17:03:24.127Z,13.90
2019-03-04T17:05:53.828Z,13.90
2019-03-04T17:08:22.471Z,13.80
2019-03-04T17:10:51.145Z,13.90
2019-03-04T17:13:20.772Z,13.80
2019-03-04T17:15:49.949Z,13.80
2019-03-04T17:18:18.684Z,13.70
2019-03-04T17:20:47.810Z,13.70
2019-03-04T17:23:18.897Z,13.70
2019-03-04T17:25:47.635Z,13.60
2019-03-04T17:28:16.351Z,13.60
2019-03-04T17:30:45.237Z,13.50
2019-03-04T17:33:14.463Z,13.50
2019-03-04T17:35:44.013Z,13.50
2019-03-04T17:38:12.658Z,13.50
2019-03-04T17:40:41.339Z,13.50
2019-03-04T17:43:09.973Z,13.50
2019-03-04T17:45:38.674Z,13.50
2019-03-04T17:48:07.397Z,13.50
2019-03-04T17:50:43.999Z,13.50
2019-03-04T17:53:14.499Z,13.50
2019-03-04T17:55:44.606Z,13.50
2019-03-04T17:58:14.437Z,13.60
2019-03-04T18:00:44.886Z,13.70
2019-03-04T18:03:13.603Z,13.70
2019-03-04T18:05:43.756Z,13.80
2019-03-04T18:08:12.373Z,13.80
2019-03-04T18:10:42.890Z,13.80
2019-03-04T18:13:16.863Z,13.80
2019-03-04T18:15:45.498Z,13.80
2019-03-04T18:18:14.073Z,13.80
2019-03-04T18:20:43.708Z,13.70
2019-03-04T18:23:12.446Z,13.70
2019-03-04T18:25:46.925Z,13.70
2019-03-04T18:28:57.237Z,13.70
2019-03-04T18:31:38.990Z,13.70
2019-03-04T18:34:32.217Z,13.70
2019-03-04T18:37:17.099Z,13.70
2019-03-04T18:39:51.564Z,13.70
2019-03-04T18:42:45.297Z,13.70
2019-03-04T18:45:19.909Z,13.70
2019-03-04T18:48:03.310Z,13.80
2019-03-04T18:50:32.034Z,13.90
2019-03-04T18:53:00.908Z,14.00
2019-03-04T18:55:31.723Z,14.00
2019-03-04T18:58:02.429Z,14.00
2019-03-04T19:00:31.719Z,14.00
2019-03-04T19:03:00.400Z,14.00
2019-03-04T19:05:29.148Z,14.00
2019-03-04T19:07:57.799Z,14.00
2019-03-04T19:10:26.650Z,14.10
2019-03-04T19:12:56.222Z,14.10
2019-03-04T19:15:24.919Z,14.10
2019-03-04T19:17:54.483Z,14.10
2019-03-04T19:20:23.475Z,14.10
2019-03-04T19:22:53.046Z,14.00
2019-03-04T19:25:21.763Z,14.00
2019-03-04T19:27:50.559Z,14.00
2019-03-04T19:30:19.250Z,14.00
2019-03-04T19:32:47.861Z,14.10
2019-03-04T19:35:16.763Z,14.10
2019-03-04T19:37:45.736Z,14.20
2019-03-04T19:40:16.269Z,14.20
2019-03-04T19:42:45.083Z,14.20
2019-03-04T19:45:20.740Z,14.10
2019-03-04T19:47:49.616Z,14.10
2019-03-04T19:50:18.637Z,14.10
2019-03-04T19:52:47.201Z,14.10
2019-03-04T19:55:18.359Z,14.10
2019-03-04T19:57:53.476Z,14.00
2019-03-04T20:00:34.723Z,14.00
2019-03-04T20:03:06.113Z,13.90
2019-03-04T20:05:34.873Z,13.90
2019-03-04T20:08:04.978Z,13.80
2019-03-04T20:10:33.556Z,13.80
2019-03-04T20:13:02.232Z,13.80
2019-03-04T20:15:36.035Z,13.80
2019-03-04T20:18:04.759Z,13.70
2019-03-04T20:20:33.536Z,13.70
2019-03-04T20:23:02.216Z,13.70
2019-03-04T20:25:31.027Z,13.70
2019-03-04T20:28:02.692Z,13.70
2019-03-04T20:30:31.380Z,13.70
2019-03-04T20:33:00.021Z,13.60
2019-03-04T20:35:28.700Z,13.60
2019-03-04T20:38:18.331Z,13.60
2019-03-04T20:40:47.077Z,13.60
2019-03-04T20:43:15.643Z,13.50
2019-03-04T20:45:45.540Z,13.50
2019-03-04T20:48:14.191Z,13.40
2019-03-04T20:50:42.847Z,13.40
2019-03-04T20:53:11.476Z,13.40
2019-03-04T20:55:40.062Z,13.40
2019-03-04T20:58:08.781Z,13.40
2019-03-04T21:00:39.195Z,13.30
2019-03-04T21:03:08.695Z,13.30
2019-03-04T21:05:37.701Z,13.30
2019-03-04T21:08:07.899Z,13.30
2019-03-04T21:10:36.848Z,13.30
2019-03-04T21:13:22.479Z,13.20
2019-03-04T21:15:51.268Z,13.20
2019-03-04T21:18:20.128Z,13.20
2019-03-04T21:20:48.952Z,13.20
2019-03-04T21:23:17.815Z,13.20
2019-03-04T21:25:59.174Z,13.20
2019-03-04T21:28:49.129Z,13.20
2019-03-04T21:31:30.419Z,13.20
2019-03-04T21:34:11.406Z,13.20
2019-03-04T21:36:43.281Z,13.10
2019-03-04T21:39:16.636Z,13.10
2019-03-04T21:42:03.351Z,13.10
2019-03-04T21:44:44.874Z,13.00
2019-03-04T21:47:29.458Z,13.00
2019-03-04T21:49:58.147Z,12.90
2019-03-04T21:52:41.543Z,12.90
2019-03-04T21:55:13.357Z,12.80
2019-03-04T21:57:45.264Z,12.80
2019-03-04T22:00:18.028Z,12.70
2019-03-04T22:02:49.985Z,12.70
2019-03-04T22:05:19.445Z,12.70
2019-03-04T22:07:49.025Z,12.70
2019-03-04T22:10:17.985Z,12.60
2019-03-04T22:12:46.604Z,12.60
2019-03-04T22:15:16.443Z,12.50
2019-03-04T22:17:45.166Z,12.50
2019-03-04T22:20:15.775Z,12.50
2019-03-04T22:22:45.433Z,12.50
2019-03-04T22:25:14.816Z,12.50
2019-03-04T22:27:43.458Z,12.50
2019-03-04T22:30:19.073Z,12.50
2019-03-04T22:32:47.729Z,12.50
2019-03-04T22:35:17.754Z,12.50
2019-03-04T22:37:46.839Z,12.50
2019-03-04T22:40:18.151Z,12.40
2019-03-04T22:42:46.901Z,12.40
2019-03-04T22:45:17.492Z,12.30
2019-03-04T22:47:46.671Z,12.30
2019-03-04T22:50:17.159Z,12.30
2019-03-04T22:52:45.743Z,12.30
2019-03-04T22:55:20.309Z,12.30
2019-03-04T22:57:48.872Z,12.30
2019-03-04T23:00:54.963Z,12.30
2019-03-04T23:03:25.731Z,12.30
2019-03-04T23:06:14.103Z,12.30
2019-03-04T23:08:43.025Z,12.20
2019-03-04T23:11:11.705Z,12.20
2019-03-04T23:13:58.613Z,12.10
2019-03-04T23:16:32.576Z,12.10
2019-03-04T23:19:02.107Z,12.00
2019-03-04T23:21:30.758Z,11.90
2019-03-04T23:23:59.471Z,11.90
2019-03-04T23:26:28.585Z,11.80
2019-03-04T23:28:57.333Z,11.80
2019-03-04T23:31:25.996Z,11.70
2019-03-04T23:33:54.546Z,11.60
2019-03-04T23:36:23.272Z,11.60
2019-03-04T23:38:51.868Z,11.50
2019-03-04T23:41:20.466Z,11.40
2019-03-04T23:43:49.147Z,11.30
2019-03-04T23:46:17.788Z,11.20
2019-03-04T23:48:46.374Z,11.10
2019-03-04T23:51:14.977Z,11.00
2019-03-04T23:53:43.919Z,10.90
2019-03-04T23:56:12.907Z,10.90
2019-03-04T23:58:41.487Z,10.80
